createdAt,value
2019-05-14T06:25:11.122Z,43.00
2019-05-14T06:28:08.529Z,43.60
2019-05-14T06:31:02.145Z,42.80
2019-05-14T06:33:59.578Z,42.60
2019-05-14T06:36:58.915Z,42.60
2019-05-14T06:39:58.658Z,42.50
2019-05-14T06:42:52.967Z,42.50
2019-05-14T06:45:49.306Z,42.50
2019-05-14T06:48:48.797Z,42.30
2019-05-14T06:51:42.882Z,42.50
2019-05-14T06:54:38.658Z,41.90
2019-05-14T06:57:39.336Z,42.30
2019-05-14T07:00:30.871Z,42.10
2019-05-14T07:03:24.691Z,42.00
2019-05-14T07:06:18.692Z,41.70
2019-05-14T07:09:14.247Z,41.80
2019-05-14T07:12:09.680Z,42.00
2019-05-14T07:15:04.528Z,41.60
2019-05-14T07:17:59.886Z,41.70
2019-05-14T07:20:55.490Z,41.50
2019-05-14T07:23:48.881Z,41.40
2019-05-14T07:26:41.727Z,41.40
2019-05-14T07:29:38.524Z,41.30
2019-05-14T07:32:30.686Z,41.30
2019-05-14T07:35:25.406Z,40.90
2019-05-14T07:38:19.579Z,41.20
2019-05-14T07:41:14.679Z,41.00
2019-05-14T07:44:11.089Z,40.70
2019-05-14T07:47:05.081Z,40.80
2019-05-14T07:49:58.280Z,40.60
2019-05-14T07:52:55.602Z,40.50
2019-05-14T07:55:51.139Z,40.50
2019-05-14T07:58:44.738Z,40.40
2019-05-14T08:01:44.229Z,40.40
2019-05-14T08:04:55.203Z,40.30
2019-05-14T08:07:50.374Z,40.10
2019-05-14T08:10:48.902Z,39.90
2019-05-14T08:14:00.493Z,39.80
2019-05-14T08:17:09.881Z,39.70
2019-05-14T08:20:05.215Z,39.50
2019-05-14T08:23:03.707Z,38.70
2019-05-14T08:25:58.676Z,38.80
2019-05-14T08:28:55.368Z,38.70
2019-05-14T08:31:52.874Z,38.10
2019-05-14T08:34:48.963Z,38.50
2019-05-14T08:37:45.174Z,38.50
2019-05-14T08:40:40.164Z,38.70
2019-05-14T08:43:39.366Z,39.00
2019-05-14T08:46:32.875Z,39.30
2019-05-14T08:49:39.151Z,39.30
2019-05-14T08:52:24.810Z,39.20
2019-05-14T08:55:33.325Z,39.30
2019-05-14T08:58:30.018Z,39.20
2019-05-14T09:01:23.808Z,39.00
2019-05-14T09:04:16.303Z,39.00
2019-05-14T09:07:09.568Z,39.00
2019-05-14T09:10:04.975Z,38.90
2019-05-14T09:13:02.658Z,38.90
2019-05-14T09:15:58.063Z,39.00
2019-05-14T09:18:58.112Z,38.80
2019-05-14T09:21:54.716Z,38.60
2019-05-14T09:24:49.218Z,38.40
2019-05-14T09:27:49.194Z,38.60
2019-05-14T09:30:41.333Z,37.90
2019-05-14T09:33:39.021Z,37.80
2019-05-14T09:36:33.145Z,38.50
2019-05-14T09:39:29.126Z,37.90
2019-05-14T09:42:28.558Z,36.90
2019-05-14T09:45:38.788Z,36.70
2019-05-14T09:48:50.117Z,37.00
2019-05-14T09:51:48.736Z,36.90
2019-05-14T09:54:45.604Z,36.90
2019-05-14T09:57:41.095Z,36.80
2019-05-14T10:00:39.218Z,36.60
2019-05-14T10:05:03.910Z,36.90
2019-05-14T10:07:15.205Z,36.90
2019-05-14T10:10:07.374Z,36.90
2019-05-14T10:13:14.353Z,37.00
2019-05-14T10:16:10.622Z,37.10
2019-05-14T10:19:04.153Z,37.20
2019-05-14T10:21:58.782Z,37.30
2019-05-14T10:24:53.679Z,37.30
2019-05-14T10:27:48.957Z,37.30
2019-05-14T10:30:49.097Z,37.50
2019-05-14T10:33:44.245Z,37.60
2019-05-14T10:36:41.383Z,37.40
2019-05-14T10:39:38.867Z,37.40
2019-05-14T10:42:35.769Z,37.40
2019-05-14T10:45:30.763Z,37.60
2019-05-14T10:48:25.417Z,37.60
2019-05-14T10:51:23.521Z,37.70
2019-05-14T10:54:25.020Z,37.60
2019-05-14T10:57:14.968Z,37.60
2019-05-14T11:00:10.013Z,37.70
2019-05-14T11:03:30.223Z,37.60
2019-05-14T11:06:34.004Z,37.60
2019-05-14T11:09:31.777Z,37.50
2019-05-14T11:15:54.135Z,37.50
2019-05-14T11:18:49.736Z,37.50
2019-05-14T11:21:59.317Z,37.60
2019-05-14T11:24:51.579Z,38.00
2019-05-14T11:28:00.716Z,37.60
2019-05-14T11:30:45.847Z,37.60
2019-05-14T11:36:40.424Z,37.70
2019-05-14T11:39:34.464Z,37.70
2019-05-14T11:42:31.383Z,37.70
2019-05-14T11:46:38.741Z,37.70
2019-05-14T11:48:21.633Z,37.70
2019-05-14T11:51:20.594Z,37.70
2019-05-14T11:54:22.825Z,37.60
2019-05-14T11:57:15.897Z,37.70
2019-05-14T12:00:09.457Z,37.70
2019-05-14T12:03:05.145Z,37.80
2019-05-14T12:06:01.060Z,37.80
2019-05-14T12:08:58.137Z,37.80
2019-05-14T12:11:51.991Z,38.00
2019-05-14T12:17:51.010Z,38.10
2019-05-14T12:20:46.167Z,38.10
2019-05-14T12:23:40.381Z,38.00
2019-05-14T12:26:35.220Z,38.10
2019-05-14T12:29:30.410Z,38.10
2019-05-14T12:32:25.867Z,38.10
2019-05-14T12:35:19.674Z,38.10
2019-05-14T12:38:13.848Z,38.20
2019-05-14T12:41:09.232Z,38.40
2019-05-14T12:44:02.701Z,38.30
2019-05-14T12:46:58.703Z,38.40
2019-05-14T12:49:53.266Z,38.40
2019-05-14T12:52:48.467Z,38.50
